Time;durP1;ratioP1;P1;durP2;ratioP2;P2;SDS_P1;SDS_P2;PMS_P1;PMS_P2;Temp;Humidity;BMP_temperature;BMP_pressure;BME280_temperature;BME280_humidity;BME280_pressure;Samples;Min_cycle;Max_cycle;Signal;HPM_P1;HPM_P2
2021/12/10 00:01:51;;;;;;;34.17;19.50;;;4.70;99.90;;;;;;5021543;28;20327;-81
2021/12/10 00:04:21;;;;;;;38.25;21.00;;;4.70;99.90;;;;;;5006535;28;20091;-81
2021/12/10 00:06:55;;;;;;;37.25;20.77;;;4.70;99.90;;;;;;5007526;28;20034;-83
2021/12/10 00:09:37;;;;;;;35.97;19.95;;;4.70;99.90;;;;;;5005955;28;20018;-83
2021/12/10 00:12:18;;;;;;;33.83;19.92;;;4.70;99.90;;;;;;5005074;28;20026;-82
2021/12/10 00:15:15;;;;;;;33.67;20.67;;;4.70;99.90;;;;;;5008416;28;20268;-82
2021/12/10 00:17:41;;;;;;;33.30;19.75;;;4.70;99.90;;;;;;5024643;28;20037;-81
2021/12/10 00:20:08;;;;;;;33.72;20.80;;;4.70;99.90;;;;;;5023379;28;20022;-81
2021/12/10 00:22:41;;;;;;;35.50;20.63;;;4.70;99.90;;;;;;4989611;28;20265;-81
2021/12/10 00:25:12;;;;;;;35.75;18.88;;;4.70;99.90;;;;;;5005297;28;20260;-83
2021/12/10 00:27:38;;;;;;;34.78;19.30;;;4.70;99.90;;;;;;5025261;28;20311;-82
2021/12/10 00:30:39;;;;;;;32.67;19.25;;;5.10;99.90;;;;;;5005137;28;20042;-84
2021/12/10 00:33:13;;;;;;;34.55;19.30;;;4.70;99.90;;;;;;5006780;28;20025;-83
2021/12/10 00:35:41;;;;;;;32.40;19.27;;;4.70;99.90;;;;;;5006512;28;20200;-82
2021/12/10 00:38:08;;;;;;;33.95;19.20;;;4.70;99.90;;;;;;5006303;28;20032;-81
2021/12/10 00:40:35;;;;;;;33.05;19.45;;;4.70;99.90;;;;;;5005577;28;20381;-81
2021/12/10 00:43:02;;;;;;;32.08;18.55;;;4.70;99.90;;;;;;5020645;28;20036;-82
2021/12/10 00:45:28;;;;;;;31.17;18.02;;;4.70;99.90;;;;;;5023895;28;20021;-83
2021/12/10 00:47:57;;;;;;;30.90;18.65;;;5.90;99.90;;;;;;5023578;28;20025;-84
2021/12/10 00:50:27;;;;;;;36.22;18.63;;;4.70;99.90;;;;;;5023718;28;20022;-83
2021/12/10 00:52:53;;;;;;;33.83;18.50;;;4.70;99.90;;;;;;5001565;28;20021;-83
2021/12/10 00:55:21;;;;;;;35.95;18.00;;;4.70;99.90;;;;;;5022464;28;20018;-82
2021/12/10 00:57:47;;;;;;;30.17;17.45;;;4.70;99.90;;;;;;5006421;28;20172;-82
2021/12/10 01:00:32;;;;;;;33.92;17.85;;;4.80;99.90;;;;;;4988562;28;20053;-83
2021/12/10 01:02:59;;;;;;;30.23;16.58;;;4.80;99.90;;;;;;5006038;28;20117;-82
2021/12/10 01:05:25;;;;;;;34.03;17.48;;;5.00;99.90;;;;;;4991066;28;20084;-82
2021/12/10 01:07:52;;;;;;;31.75;17.55;;;4.80;99.90;;;;;;4990184;28;20199;-82
2021/12/10 01:10:33;;;;;;;33.15;17.05;;;4.80;99.90;;;;;;5022423;28;20241;-82
2021/12/10 01:13:01;;;;;;;33.45;17.08;;;5.90;99.90;;;;;;5004512;28;20026;-83
2021/12/10 01:24:08;;;;;;;28.27;16.60;;;4.70;99.90;;;;;;5023490;28;20261;-82
2021/12/10 01:29:12;;;;;;;31.45;16.88;;;4.80;99.90;;;;;;5022149;28;20029;-82
2021/12/10 01:31:39;;;;;;;27.40;17.52;;;4.70;99.90;;;;;;5019637;28;20188;-83
2021/12/10 01:34:06;;;;;;;26.35;16.17;;;4.80;99.90;;;;;;5020912;28;20602;-83
2021/12/10 01:36:33;;;;;;;28.23;15.68;;;4.80;99.90;;;;;;5005487;28;20283;-81
2021/12/10 01:38:59;;;;;;;30.17;16.27;;;4.80;99.90;;;;;;4989653;28;20033;-81
2021/12/10 01:41:29;;;;;;;31.88;17.52;;;4.80;99.90;;;;;;5005712;28;20226;-82
2021/12/10 01:44:01;;;;;;;32.35;16.52;;;4.80;99.90;;;;;;5022627;28;20029;-82
2021/12/10 01:46:29;;;;;;;28.17;15.23;;;4.80;99.90;;;;;;5003755;28;20138;-82
2021/12/10 01:49:04;;;;;;;31.00;16.08;;;4.80;99.90;;;;;;4990632;28;20277;-83
2021/12/10 01:51:33;;;;;;;30.80;15.95;;;4.80;99.90;;;;;;5022533;28;20275;-83
2021/12/10 01:54:08;;;;;;;30.27;15.68;;;4.80;99.90;;;;;;5019563;28;20038;-82
2021/12/10 01:56:37;;;;;;;26.38;15.07;;;4.80;99.90;;;;;;5005001;28;20319;-82
2021/12/10 01:59:05;;;;;;;29.23;15.65;;;4.80;99.90;;;;;;5005381;28;20056;-82
2021/12/10 02:01:40;;;;;;;29.02;14.95;;;4.80;99.90;;;;;;4984752;28;20033;-82
2021/12/10 02:04:09;;;;;;;26.27;16.33;;;4.80;99.90;;;;;;5003320;28;20029;-82
2021/12/10 02:06:35;;;;;;;27.13;15.57;;;4.80;99.90;;;;;;5002769;28;20088;-81
2021/12/10 02:09:01;;;;;;;28.05;17.02;;;;;;;;;;5022146;28;20040;-81
2021/12/10 02:11:33;;;;;;;33.50;17.90;;;4.70;99.90;;;;;;4985921;28;20038;-84
2021/12/10 02:13:59;;;;;;;29.20;17.10;;;4.70;99.90;;;;;;5017233;28;20022;-82
2021/12/10 02:16:25;;;;;;;30.98;16.63;;;4.70;99.90;;;;;;5020124;28;20141;-82
2021/12/10 02:18:51;;;;;;;30.40;17.02;;;4.70;99.90;;;;;;4989391;28;20065;-82
2021/12/10 02:21:20;;;;;;;31.02;17.08;;;4.70;99.90;;;;;;5019939;28;20060;-82
2021/12/10 02:23:56;;;;;;;28.65;16.95;;;4.70;99.90;;;;;;5004023;28;20037;-83
2021/12/10 02:26:27;;;;;;;27.48;16.58;;;5.00;99.90;;;;;;5018726;28;20052;-83
2021/12/10 02:28:54;;;;;;;30.17;18.20;;;4.70;99.90;;;;;;5004654;28;20026;-81
2021/12/10 02:31:21;;;;;;;32.10;16.65;;;4.70;99.90;;;;;;5005309;28;20022;-83
2021/12/10 02:33:47;;;;;;;35.78;16.30;;;4.70;99.90;;;;;;4987623;28;20054;-83
2021/12/10 02:36:13;;;;;;;31.58;16.45;;;4.70;99.90;;;;;;5021940;28;20022;-83
2021/12/10 02:39:04;;;;;;;29.75;15.88;;;4.70;99.90;;;;;;5019040;28;20211;-82
2021/12/10 02:41:31;;;;;;;27.63;15.48;;;4.70;99.90;;;;;;5020719;28;20102;-83
2021/12/10 02:43:59;;;;;;;28.58;15.40;;;4.70;99.90;;;;;;4989629;28;20030;-83
2021/12/10 02:46:26;;;;;;;27.50;15.82;;;4.90;99.90;;;;;;5004237;28;20036;-82
2021/12/10 02:48:52;;;;;;;27.15;14.82;;;5.70;99.90;;;;;;5021818;28;20056;-83
2021/12/10 02:51:18;;;;;;;31.23;15.70;;;4.70;99.90;;;;;;5020624;28;20024;-82
2021/12/10 02:53:45;;;;;;;26.70;14.73;;;4.70;99.90;;;;;;5003802;28;20045;-83
2021/12/10 02:56:15;;;;;;;24.55;14.38;;;4.70;99.90;;;;;;5017032;28;20017;-83
2021/12/10 02:58:41;;;;;;;24.95;13.27;;;4.70;99.90;;;;;;5021151;28;20025;-80
2021/12/10 03:01:09;;;;;;;28.17;12.93;;;;;;;;;;5020106;28;20188;-83
2021/12/10 03:03:40;;;;;;;25.13;12.00;;;4.70;99.90;;;;;;5021374;28;20137;-82
2021/12/10 03:06:10;;;;;;;23.85;12.27;;;4.60;99.90;;;;;;5004662;28;20041;-84
2021/12/10 03:08:38;;;;;;;20.90;11.77;;;4.60;99.90;;;;;;5004627;28;20069;-82
2021/12/10 03:11:05;;;;;;;24.75;12.32;;;5.60;99.90;;;;;;5019672;28;20316;-83
2021/12/10 03:13:34;;;;;;;21.02;12.50;;;4.60;99.90;;;;;;5019901;28;20096;-83
2021/12/10 03:16:00;;;;;;;26.65;14.27;;;4.60;99.90;;;;;;5005555;28;20032;-82
2021/12/10 03:18:26;;;;;;;26.25;13.60;;;4.60;99.90;;;;;;5019146;28;20192;-82
2021/12/10 03:21:00;;;;;;;22.90;13.80;;;4.60;99.90;;;;;;5005017;28;20022;-82
2021/12/10 03:23:29;;;;;;;26.15;12.88;;;5.90;99.90;;;;;;4989581;28;20053;-82
2021/12/10 03:25:55;;;;;;;22.85;12.63;;;4.60;99.90;;;;;;5004107;28;20025;-82
2021/12/10 03:28:21;;;;;;;23.67;12.60;;;4.60;99.90;;;;;;5005020;28;20022;-82
2021/12/10 03:30:51;;;;;;;26.52;12.40;;;4.60;99.90;;;;;;5004358;28;20049;-82
2021/12/10 03:33:17;;;;;;;25.83;11.95;;;4.60;99.90;;;;;;5020328;28;20033;-81
2021/12/10 03:35:46;;;;;;;23.75;11.38;;;4.60;99.90;;;;;;5004650;28;20025;-82
2021/12/10 03:38:17;;;;;;;23.77;10.90;;;4.60;99.90;;;;;;5003679;28;20021;-82
2021/12/10 03:40:43;;;;;;;22.63;11.23;;;4.60;99.90;;;;;;5004913;28;20018;-81
2021/12/10 03:43:09;;;;;;;25.65;11.52;;;4.60;99.90;;;;;;5003190;28;20058;-81
2021/12/10 03:45:39;;;;;;;21.17;11.63;;;4.60;99.90;;;;;;5002653;28;20145;-81
2021/12/10 03:48:11;;;;;;;24.98;11.75;;;4.60;99.90;;;;;;5004176;28;20089;-81
2021/12/10 03:50:43;;;;;;;22.50;11.30;;;4.60;99.90;;;;;;5019091;28;20092;-83
2021/12/10 03:53:10;;;;;;;21.42;11.57;;;4.50;99.90;;;;;;5004431;28;20032;-83
2021/12/10 03:55:42;;;;;;;23.55;10.98;;;4.50;99.90;;;;;;5001251;28;20161;-82
2021/12/10 03:58:11;;;;;;;23.20;11.70;;;4.50;99.90;;;;;;5019606;28;20049;-81
2021/12/10 04:00:45;;;;;;;25.38;12.07;;;4.50;99.90;;;;;;5004987;28;20018;-82
2021/12/10 04:03:13;;;;;;;21.92;11.38;;;4.50;99.90;;;;;;5029840;28;20040;-82
2021/12/10 04:05:39;;;;;;;20.65;11.68;;;4.50;99.90;;;;;;5004798;28;20026;-82
2021/12/10 04:08:05;;;;;;;21.48;11.98;;;4.50;99.90;;;;;;5019817;28;20029;-82
2021/12/10 04:10:31;;;;;;;24.45;11.93;;;4.50;99.90;;;;;;4987523;28;20109;-83
2021/12/10 04:12:57;;;;;;;23.17;11.55;;;4.60;99.90;;;;;;4984979;28;20022;-82
2021/12/10 04:15:24;;;;;;;25.50;11.48;;;4.60;99.90;;;;;;5020599;28;20093;-83
2021/12/10 04:17:53;;;;;;;23.50;11.52;;;4.50;99.90;;;;;;5001562;28;20013;-83
2021/12/10 04:20:30;;;;;;;22.13;12.88;;;4.50;99.90;;;;;;5020577;28;20249;-83
2021/12/10 04:22:59;;;;;;;23.75;12.82;;;4.50;99.90;;;;;;5019853;28;20046;-81
2021/12/10 04:25:26;;;;;;;24.48;12.85;;;4.70;99.90;;;;;;5019685;28;20018;-81
2021/12/10 04:27:56;;;;;;;23.42;12.95;;;4.50;99.90;;;;;;4983572;28;20046;-81
2021/12/10 04:30:23;;;;;;;21.73;12.95;;;4.50;99.90;;;;;;5034679;28;20034;-81
2021/12/10 04:32:50;;;;;;;25.52;13.73;;;4.60;99.90;;;;;;5005504;28;20092;-82
2021/12/10 04:35:18;;;;;;;23.25;12.82;;;4.60;99.90;;;;;;5004820;28;20100;-83
2021/12/10 04:37:45;;;;;;;24.75;14.90;;;4.60;99.90;;;;;;5021302;28;20037;-83
2021/12/10 04:40:12;;;;;;;27.15;15.55;;;4.50;99.90;;;;;;5006605;28;20021;-83
2021/12/10 04:42:39;;;;;;;28.33;16.27;;;6.20;99.90;;;;;;4990277;28;20095;-81
2021/12/10 04:45:07;;;;;;;26.38;16.35;;;5.40;99.90;;;;;;5005471;28;20318;-84
2021/12/10 04:47:33;;;;;;;28.48;17.17;;;4.80;99.90;;;;;;5021518;28;20252;-83
2021/12/10 04:50:00;;;;;;;26.17;16.05;;;4.50;99.90;;;;;;5022846;28;20207;-84
2021/12/10 04:52:26;;;;;;;23.20;15.77;;;5.70;99.90;;;;;;5007269;28;20080;-82
2021/12/10 04:54:52;;;;;;;25.63;16.45;;;5.20;99.90;;;;;;5023721;28;20021;-82
2021/12/10 04:57:19;;;;;;;25.05;15.85;;;4.50;99.90;;;;;;5006580;28;20014;-83
2021/12/10 04:59:46;;;;;;;28.50;16.23;;;4.40;99.90;;;;;;5003995;28;20049;-80
2021/12/10 05:02:16;;;;;;;27.23;17.15;;;3.90;99.90;;;;;;5007195;28;20024;-81
2021/12/10 05:04:45;;;;;;;26.60;17.20;;;4.30;99.90;;;;;;5020692;28;20278;-81
2021/12/10 05:07:13;;;;;;;27.52;16.77;;;4.30;99.90;;;;;;5004520;28;20029;-81
2021/12/10 05:09:39;;;;;;;28.10;16.45;;;4.20;99.90;;;;;;5007276;28;20069;-82
2021/12/10 05:12:06;;;;;;;25.27;15.98;;;4.10;99.90;;;;;;5006686;28;20030;-82
2021/12/10 05:14:33;;;;;;;24.60;15.52;;;4.00;99.90;;;;;;5023738;28;20018;-83
2021/12/10 05:17:03;;;;;;;31.33;17.73;;;4.20;99.90;;;;;;4989757;28;20049;-82
2021/12/10 05:19:33;;;;;;;25.38;15.00;;;3.90;99.90;;;;;;5005816;28;20026;-84
2021/12/10 05:22:01;;;;;;;26.10;15.70;;;4.40;99.90;;;;;;5004963;28;20026;-81
2021/12/10 05:24:28;;;;;;;26.73;15.60;;;4.10;99.90;;;;;;5006838;28;20029;-82
2021/12/10 05:27:07;;;;;;;24.27;14.82;;;3.90;99.90;;;;;;5022704;28;20134;-83
2021/12/10 05:29:33;;;;;;;26.08;14.90;;;4.90;99.90;;;;;;5002228;28;20029;-83
2021/12/10 05:32:08;;;;;;;24.52;14.52;;;3.60;99.90;;;;;;5005280;28;20080;-83
2021/12/10 05:34:36;;;;;;;28.33;14.95;;;3.50;99.90;;;;;;5023330;28;20021;-82
2021/12/10 05:37:06;;;;;;;23.77;14.85;;;3.70;99.90;;;;;;5022025;28;20083;-83
2021/12/10 05:39:32;;;;;;;22.35;14.30;;;3.20;99.90;;;;;;4990977;28;20341;-82
2021/12/10 05:42:00;;;;;;;25.15;15.00;;;3.40;99.90;;;;;;4988534;28;20034;-82
2021/12/10 05:44:26;;;;;;;22.98;14.77;;;3.40;99.90;;;;;;5022709;28;20040;-83
2021/12/10 05:46:52;;;;;;;29.50;15.45;;;3.40;99.90;;;;;;5005364;28;20227;-82
2021/12/10 05:49:18;;;;;;;24.55;15.73;;;3.30;99.90;;;;;;5022054;28;20025;-83
2021/12/10 05:51:44;;;;;;;26.20;15.82;;;3.30;99.90;;;;;;5022372;28;20076;-83
2021/12/10 05:54:10;;;;;;;27.85;16.88;;;3.70;99.90;;;;;;5004306;28;20049;-82
2021/12/10 05:56:45;;;;;;;25.33;15.45;;;3.20;99.90;;;;;;5004831;28;20041;-84
2021/12/10 05:59:10;;;;;;;26.63;16.45;;;4.20;99.90;;;;;;5018524;28;20022;-82
2021/12/10 06:01:36;;;;;;;27.25;15.63;;;3.20;99.90;;;;;;5000660;28;20197;-82
2021/12/10 06:04:03;;;;;;;28.00;16.25;;;3.20;99.90;;;;;;4989147;28;20029;-83
2021/12/10 06:06:33;;;;;;;27.85;16.70;;;3.20;99.90;;;;;;5021302;28;20053;-81
2021/12/10 06:09:14;;;;;;;29.55;16.73;;;3.20;99.90;;;;;;5005493;28;20328;-83
2021/12/10 06:11:40;;;;;;;27.70;16.67;;;3.20;99.90;;;;;;4982442;28;20042;-82
2021/12/10 06:14:07;;;;;;;27.55;17.13;;;3.20;99.90;;;;;;5005989;28;20117;-79
2021/12/10 06:16:36;;;;;;;28.52;16.83;;;3.30;99.90;;;;;;5022164;28;20367;-81
2021/12/10 06:19:04;;;;;;;26.27;16.58;;;3.70;99.90;;;;;;5023671;28;20097;-80
2021/12/10 06:21:30;;;;;;;28.38;17.55;;;3.30;99.90;;;;;;5021961;28;20029;-78
2021/12/10 06:23:56;;;;;;;27.48;17.00;;;4.80;99.90;;;;;;5022525;28;20045;-81
2021/12/10 06:26:24;;;;;;;25.58;15.07;;;3.30;99.90;;;;;;5005614;28;20029;-83
2021/12/10 06:28:50;;;;;;;23.80;16.00;;;3.30;99.90;;;;;;4990167;28;20470;-83
2021/12/10 06:31:21;;;;;;;27.83;16.58;;;5.00;99.90;;;;;;5005885;28;20026;-83
2021/12/10 06:33:51;;;;;;;25.40;15.98;;;3.40;99.90;;;;;;5019673;28;20061;-82
2021/12/10 06:36:19;;;;;;;25.88;16.98;;;3.40;99.90;;;;;;4989809;28;20037;-81
2021/12/10 06:38:46;;;;;;;23.98;16.00;;;4.10;99.90;;;;;;5021052;28;20029;-82
2021/12/10 06:41:14;;;;;;;23.08;14.75;;;4.20;99.90;;;;;;4990117;28;20037;-82
2021/12/10 06:43:40;;;;;;;24.42;16.42;;;3.40;99.90;;;;;;4987187;28;20029;-82
2021/12/10 06:46:06;;;;;;;25.10;15.95;;;3.40;99.90;;;;;;5006147;28;20037;-82
2021/12/10 06:48:33;;;;;;;24.25;15.38;;;3.40;99.90;;;;;;5005515;28;20244;-82
2021/12/10 06:51:02;;;;;;;23.70;15.32;;;3.30;99.90;;;;;;5021119;28;20032;-82
2021/12/10 06:53:30;;;;;;;25.00;15.77;;;3.30;99.90;;;;;;5022160;28;20018;-83
2021/12/10 06:55:58;;;;;;;25.00;15.98;;;3.70;99.90;;;;;;4989702;28;20349;-83
2021/12/10 06:58:24;;;;;;;24.90;14.57;;;3.20;99.90;;;;;;5021894;28;20024;-84
2021/12/10 07:00:54;;;;;;;23.17;15.05;;;3.10;99.90;;;;;;5005621;28;20057;-82
2021/12/10 07:03:23;;;;;;;21.98;14.13;;;3.60;99.90;;;;;;5022048;28;20036;-83
2021/12/10 07:05:50;;;;;;;22.30;13.88;;;3.00;99.90;;;;;;5021050;28;20994;-83
2021/12/10 07:08:18;;;;;;;23.45;14.35;;;2.90;99.90;;;;;;5005468;28;20036;-83
2021/12/10 07:10:44;;;;;;;21.63;13.50;;;2.90;99.90;;;;;;5021527;28;20096;-83
2021/12/10 07:13:11;;;;;;;19.98;12.93;;;2.80;99.90;;;;;;4989676;28;20022;-84
2021/12/10 07:15:41;;;;;;;21.02;13.20;;;2.80;99.90;;;;;;5005302;28;20228;-83
2021/12/10 07:18:08;;;;;;;21.02;12.65;;;3.80;99.90;;;;;;5005223;28;20280;-83
2021/12/10 07:20:34;;;;;;;20.10;11.80;;;2.70;99.90;;;;;;5021978;28;20064;-82
2021/12/10 07:23:00;;;;;;;22.42;12.25;;;2.70;99.90;;;;;;5021998;28;20033;-83
2021/12/10 07:25:38;;;;;;;21.58;12.65;;;2.70;99.90;;;;;;5005367;28;20029;-83
2021/12/10 07:28:04;;;;;;;18.40;11.23;;;2.60;99.90;;;;;;5021303;28;20245;-82
2021/12/10 07:30:31;;;;;;;18.30;11.65;;;2.60;99.90;;;;;;5021909;28;20025;-82
2021/12/10 07:32:57;;;;;;;19.85;11.45;;;3.30;99.90;;;;;;5021643;28;20030;-81
2021/12/10 07:35:23;;;;;;;18.92;11.70;;;2.60;99.90;;;;;;5004919;28;20244;-82
2021/12/10 07:37:49;;;;;;;20.58;11.45;;;2.60;99.90;;;;;;4989047;28;20042;-83
2021/12/10 07:40:26;;;;;;;18.50;11.07;;;2.50;99.90;;;;;;5021322;28;20026;-82
2021/12/10 07:42:52;;;;;;;17.55;10.70;;;2.50;99.90;;;;;;4995529;28;20030;-83
2021/12/10 07:45:18;;;;;;;19.10;11.25;;;2.40;99.90;;;;;;5021862;28;20030;-83
2021/12/10 07:47:46;;;;;;;21.48;10.90;;;3.90;99.90;;;;;;5002566;28;20172;-81
2021/12/10 07:50:18;;;;;;;20.65;11.45;;;2.40;99.90;;;;;;4997162;28;20229;-83
2021/12/10 07:52:45;;;;;;;19.42;10.43;;;2.90;99.90;;;;;;5020908;28;20049;-83
2021/12/10 07:55:14;;;;;;;17.42;10.23;;;2.40;99.90;;;;;;4988857;28;20249;-81
2021/12/10 07:57:41;;;;;;;19.50;10.75;;;2.50;99.90;;;;;;5021517;28;20224;-83
2021/12/10 08:00:10;;;;;;;18.17;10.35;;;2.40;99.90;;;;;;5006209;28;20144;-83
2021/12/10 08:02:45;;;;;;;17.50;10.43;;;2.30;99.90;;;;;;5023003;28;20093;-83
2021/12/10 08:05:19;;;;;;;18.80;9.68;;;2.40;99.90;;;;;;5007788;28;20080;-82
2021/12/10 08:07:47;;;;;;;;;;;2.40;99.90;;;;;;5026984;28;20025;-83
2021/12/10 08:10:14;;;;;;;17.05;9.52;;;3.10;99.90;;;;;;4992569;28;20067;-82
2021/12/10 08:12:40;;;;;;;20.85;10.35;;;2.30;99.90;;;;;;5008584;28;20064;-83
2021/12/10 08:15:07;;;;;;;16.77;9.30;;;2.50;99.90;;;;;;5025516;28;20153;-83
2021/12/10 08:17:33;;;;;;;17.88;9.48;;;2.40;99.90;;;;;;5022701;28;20194;-82
2021/12/10 08:20:01;;;;;;;17.45;9.25;;;2.40;99.90;;;;;;5024809;28;21268;-83
2021/12/10 08:22:27;;;;;;;17.05;9.15;;;2.40;99.90;;;;;;4992420;28;20037;-83
2021/12/10 08:24:52;;;;;;;17.30;9.10;;;2.40;99.90;;;;;;5008714;28;20049;-83
2021/12/10 08:27:19;;;;;;;15.00;8.77;;;2.40;99.90;;;;;;5008681;28;20288;-83
2021/12/10 08:29:45;;;;;;;17.08;8.90;;;3.00;99.90;;;;;;5007876;28;20081;-83
2021/12/10 08:32:15;;;;;;;16.63;8.93;;;2.40;99.90;;;;;;5024679;28;20077;-83
2021/12/10 08:34:48;;;;;;;15.82;8.52;;;2.40;99.90;;;;;;5010438;28;20021;-84
2021/12/10 08:37:14;;;;;;;;;;;3.60;99.90;;;;;;5021941;28;20212;-81
2021/12/10 08:39:40;;;;;;;15.52;7.72;;;2.40;99.90;;;;;;5008442;28;19913;-83
2021/12/10 08:42:06;;;;;;;15.77;8.57;;;2.40;99.90;;;;;;5023504;28;20041;-83
2021/12/10 08:44:32;;;;;;;16.83;8.95;;;2.50;99.90;;;;;;5008320;28;20163;-83
2021/12/10 08:46:59;;;;;;;16.00;8.25;;;2.50;99.90;;;;;;5008039;28;20026;-82
2021/12/10 08:49:27;;;;;;;19.25;8.93;;;3.10;99.90;;;;;;5024205;28;20026;-83
2021/12/10 08:51:56;;;;;;;15.73;8.55;;;2.60;99.90;;;;;;4992049;28;20088;-83
2021/12/10 08:54:27;;;;;;;16.35;8.73;;;3.40;99.90;;;;;;5008252;28;20022;-83
2021/12/10 08:56:53;;;;;;;16.17;8.43;;;2.90;99.90;;;;;;5008019;28;20029;-83
2021/12/10 08:59:24;;;;;;;14.82;7.90;;;2.80;99.90;;;;;;4991756;28;20085;-83
2021/12/10 09:01:56;;;;;;;19.70;9.23;;;4.50;99.90;;;;;;5007371;28;20037;-83
2021/12/10 09:04:28;;;;;;;17.38;8.52;;;4.00;99.90;;;;;;5024503;28;20112;-84
2021/12/10 09:07:25;;;;;;;14.63;7.85;;;2.90;99.90;;;;;;4984710;28;20046;-84
2021/12/10 09:09:51;;;;;;;14.82;7.90;;;3.00;99.90;;;;;;5002027;28;20034;-83
2021/12/10 09:12:21;;;;;;;14.70;7.93;;;3.70;99.90;;;;;;5023961;28;20095;-85
2021/12/10 09:14:55;;;;;;;16.13;7.72;;;3.20;99.90;;;;;;5006924;28;20038;-83
2021/12/10 09:17:29;;;;;;;14.77;8.27;;;4.40;99.90;;;;;;5024160;28;20029;-82
2021/12/10 09:19:58;;;;;;;14.30;7.97;;;3.20;99.90;;;;;;5024186;28;20040;-82
2021/12/10 09:22:27;;;;;;;13.85;7.60;;;3.20;99.90;;;;;;5007384;28;20363;-82
2021/12/10 09:24:56;;;;;;;15.10;8.50;;;4.60;99.90;;;;;;4987446;28;20022;-81
2021/12/10 09:27:37;;;;;;;14.80;7.90;;;3.50;99.90;;;;;;5004876;28;20038;-84
2021/12/10 09:30:07;;;;;;;15.02;8.00;;;3.70;99.90;;;;;;5023067;28;20072;-84
2021/12/10 09:32:38;;;;;;;15.82;7.65;;;3.40;99.90;;;;;;5006822;28;20098;-84
2021/12/10 09:35:07;;;;;;;15.25;7.82;;;0.70;99.90;;;;;;5007022;28;20021;-84
2021/12/10 09:37:38;;;;;;;15.48;8.10;;;3.50;99.90;;;;;;5000807;28;20014;-83
2021/12/10 09:40:12;;;;;;;16.02;7.90;;;3.50;99.90;;;;;;5023795;28;20025;-82
2021/12/10 09:42:39;;;;;;;15.15;8.05;;;3.60;99.90;;;;;;5006761;28;20027;-82
2021/12/10 09:45:07;;;;;;;13.35;7.45;;;3.90;99.90;;;;;;5006893;28;20064;-83
2021/12/10 09:47:33;;;;;;;14.23;7.78;;;3.70;99.90;;;;;;4999358;28;20038;-83
2021/12/10 09:49:59;;;;;;;15.05;7.30;;;3.70;99.90;;;;;;4983904;28;20085;-83
2021/12/10 09:52:27;;;;;;;13.50;7.88;;;3.70;99.90;;;;;;5022775;28;20085;-83
2021/12/10 09:55:09;;;;;;;14.35;7.80;;;3.70;99.90;;;;;;5022214;28;20092;-84
2021/12/10 09:57:36;;;;;;;12.98;7.20;;;3.80;99.90;;;;;;5021790;28;20028;-83
2021/12/10 10:00:15;;;;;;;17.00;8.00;;;4.30;99.90;;;;;;5015744;28;20048;-83
2021/12/10 10:02:42;;;;;;;16.33;7.80;;;3.80;99.90;;;;;;5015861;28;20071;-82
2021/12/10 10:05:11;;;;;;;13.10;6.90;;;3.80;99.90;;;;;;5017292;28;20022;-82
2021/12/10 10:07:58;;;;;;;13.98;7.05;;;3.90;99.90;;;;;;5020685;28;20049;-83
2021/12/10 10:10:28;;;;;;;14.77;7.65;;;3.90;99.90;;;;;;5011862;28;20042;-81
2021/12/10 10:12:55;;;;;;;12.55;6.75;;;3.90;99.90;;;;;;5005988;28;20093;-81
2021/12/10 10:15:31;;;;;;;15.30;7.30;;;3.90;99.90;;;;;;5000692;28;20094;-82
2021/12/10 10:18:08;;;;;;;14.60;7.65;;;5.20;99.90;;;;;;5004421;28;20030;-83
2021/12/10 10:20:40;;;;;;;13.55;7.20;;;3.60;99.90;;;;;;5021372;28;20030;-82
2021/12/10 10:23:07;;;;;;;12.63;7.00;;;4.10;99.90;;;;;;5022435;28;20265;-81
2021/12/10 10:25:35;;;;;;;14.25;7.18;;;4.20;99.90;;;;;;4978021;28;20021;-81
2021/12/10 10:28:03;;;;;;;12.80;6.88;;;4.10;99.90;;;;;;5020927;28;20212;-82
2021/12/10 10:30:46;;;;;;;15.48;7.05;;;4.20;99.90;;;;;;5002540;28;20013;-83
2021/12/10 10:33:15;;;;;;;14.27;6.78;;;4.40;99.90;;;;;;5001825;28;20032;-83
2021/12/10 10:35:48;;;;;;;13.23;6.55;;;4.40;99.90;;;;;;4978612;28;20312;-82
2021/12/10 10:38:18;;;;;;;15.90;7.30;;;4.50;99.90;;;;;;4999604;28;20239;-83
2021/12/10 10:40:48;;;;;;;15.43;6.95;;;5.80;99.90;;;;;;5005096;28;20028;-83
2021/12/10 10:43:14;;;;;;;11.63;6.38;;;4.60;99.90;;;;;;5000954;28;20097;-81
2021/12/10 10:45:42;;;;;;;13.27;6.65;;;4.60;99.90;;;;;;5003398;28;20371;-81
2021/12/10 10:48:11;;;;;;;11.73;6.05;;;4.70;99.90;;;;;;5011757;28;20091;-81
2021/12/10 10:51:01;;;;;;;12.13;5.93;;;4.80;99.90;;;;;;5004207;28;20091;-83
2021/12/10 10:53:32;;;;;;;12.90;5.95;;;4.80;99.90;;;;;;5008927;28;20034;-81
2021/12/10 10:56:10;;;;;;;13.32;6.00;;;4.80;99.90;;;;;;5015261;28;20013;-81
2021/12/10 10:58:40;;;;;;;13.10;6.43;;;4.90;99.90;;;;;;5021672;28;20101;-82
2021/12/10 11:01:23;;;;;;;12.00;5.72;;;5.00;99.90;;;;;;5020246;28;20038;-82
2021/12/10 11:03:59;;;;;;;10.93;5.35;;;5.00;99.90;;;;;;5000225;28;20131;-83
2021/12/10 11:06:32;;;;;;;13.98;5.63;;;5.00;99.90;;;;;;5002247;28;20029;-83
2021/12/10 11:09:07;;;;;;;10.75;5.00;;;5.10;99.90;;;;;;5014181;28;20264;-82
2021/12/10 11:11:35;;;;;;;15.38;5.57;;;5.10;99.90;;;;;;5001132;28;20039;-81
2021/12/10 11:14:06;;;;;;;10.40;5.38;;;5.20;99.90;;;;;;5020202;28;20033;-82
2021/12/10 11:16:45;;;;;;;11.43;5.25;;;5.20;99.90;;;;;;5016342;28;20022;-83
2021/12/10 11:19:14;;;;;;;12.52;5.32;;;5.20;99.90;;;;;;5000204;28;20045;-82
2021/12/10 11:21:58;;;;;;;14.35;5.53;;;5.30;99.90;;;;;;5001840;28;20017;-82
2021/12/10 11:24:45;;;;;;;11.32;5.30;;;5.30;99.90;;;;;;4988976;28;20176;-82
2021/12/10 11:27:22;;;;;;;11.82;5.20;;;5.40;99.90;;;;;;4998377;28;20041;-82
2021/12/10 11:30:04;;;;;;;10.23;4.65;;;5.40;99.90;;;;;;5001735;28;20090;-81
2021/12/10 11:33:00;;;;;;;11.20;4.90;;;5.40;99.90;;;;;;5018029;28;20021;-82
2021/12/10 11:35:34;;;;;;;9.98;5.43;;;5.40;99.90;;;;;;5000824;28;20018;-80
2021/12/10 11:38:08;;;;;;;14.00;5.50;;;5.40;99.90;;;;;;5000292;28;20319;-80
2021/12/10 11:40:57;;;;;;;12.23;5.40;;;5.40;99.90;;;;;;5021099;28;20092;-80
2021/12/10 11:46:26;;;;;;;11.98;5.20;;;5.40;99.90;;;;;;5022834;28;20205;-83
2021/12/10 11:49:09;;;;;;;12.10;5.28;;;5.40;99.90;;;;;;5024113;28;20292;-82
2021/12/10 11:52:02;;;;;;;10.60;5.00;;;5.30;99.90;;;;;;5003620;28;20030;-82
2021/12/10 11:54:31;;;;;;;11.63;4.70;;;5.30;99.90;;;;;;5008004;28;20233;-82
2021/12/10 11:57:09;;;;;;;13.40;5.35;;;5.30;99.90;;;;;;5022974;28;20025;-82
2021/12/10 11:59:42;;;;;;;10.65;4.72;;;5.20;99.90;;;;;;5007888;28;20022;-82
2021/12/10 12:02:14;;;;;;;11.57;4.85;;;5.20;99.90;;;;;;5024979;28;20010;-82
2021/12/10 12:04:47;;;;;;;11.95;5.50;;;5.30;99.90;;;;;;5009283;28;20014;-82
2021/12/10 12:07:39;;;;;;;11.00;4.78;;;5.20;99.90;;;;;;5022312;28;20253;-82
2021/12/10 12:10:08;;;;;;;11.30;5.00;;;5.20;99.90;;;;;;4999718;28;20026;-83
2021/12/10 12:12:44;;;;;;;11.90;4.90;;;5.10;99.90;;;;;;5002957;28;20026;-82
2021/12/10 12:15:18;;;;;;;12.77;5.50;;;5.10;99.90;;;;;;5039287;28;20052;-80
2021/12/10 12:17:54;;;;;;;11.25;4.80;;;5.10;99.90;;;;;;5016740;28;20026;-81
2021/12/10 12:20:35;;;;;;;11.07;5.05;;;5.10;99.90;;;;;;5023928;28;20030;-81
2021/12/10 12:26:07;;;;;;;12.00;5.10;;;5.20;99.90;;;;;;5022341;28;20050;-81
2021/12/10 12:28:37;;;;;;;9.65;4.72;;;5.00;99.90;;;;;;4997290;28;20018;-82
2021/12/10 12:31:08;;;;;;;12.05;4.90;;;6.60;99.90;;;;;;5007400;28;20029;-82
2021/12/10 12:34:01;;;;;;;12.27;5.47;;;5.10;99.90;;;;;;5007805;28;20089;-82
2021/12/10 12:36:29;;;;;;;12.20;5.10;;;5.10;99.90;;;;;;5015281;28;20018;-82
2021/12/10 12:38:55;;;;;;;11.23;5.00;;;5.10;99.90;;;;;;5008020;28;20024;-82
2021/12/10 12:41:37;;;;;;;10.75;5.40;;;5.10;99.90;;;;;;4988865;28;20022;-82
2021/12/10 12:44:11;;;;;;;10.80;4.85;;;5.10;99.90;;;;;;5023053;28;20288;-81
2021/12/10 12:47:01;;;;;;;12.90;4.88;;;5.10;99.90;;;;;;5015436;28;20083;-81
2021/12/10 12:49:37;;;;;;;10.45;4.50;;;5.00;99.90;;;;;;5017763;28;20026;-82
2021/12/10 12:52:12;;;;;;;15.43;5.50;;;5.10;99.90;;;;;;5018423;28;20014;-82
2021/12/10 12:55:01;;;;;;;10.25;4.88;;;6.10;99.90;;;;;;5003943;28;20026;-82
2021/12/10 12:58:07;;;;;;;10.57;4.90;;;5.10;99.90;;;;;;5000150;28;20030;-83
2021/12/10 13:00:42;;;;;;;12.32;5.03;;;5.10;99.90;;;;;;4974060;28;20162;-82
2021/12/10 13:03:29;;;;;;;12.60;5.10;;;5.10;99.90;;;;;;5006336;28;20014;-81
2021/12/10 13:06:13;;;;;;;12.70;4.68;;;5.10;99.90;;;;;;5022316;28;20018;-82
2021/12/10 13:08:42;;;;;;;12.13;4.93;;;5.10;99.90;;;;;;5023745;28;20276;-80
2021/12/10 13:11:21;;;;;;;11.88;5.00;;;5.10;99.90;;;;;;5022884;28;20046;-81
2021/12/10 13:13:52;;;;;;;12.88;4.72;;;5.00;99.90;;;;;;5004523;28;20053;-81
2021/12/10 13:16:45;;;;;;;11.73;4.65;;;4.90;99.90;;;;;;5004496;28;20180;-80
2021/12/10 13:19:20;;;;;;;12.52;4.82;;;5.80;99.90;;;;;;5006540;28;20152;-82